Terminal Aerodrome Forecast
Issued by NWS Bismarck, ND

Home | Current Version | Previous Version | Text Only | Print | Product List | Glossary Off
Versions: 1 2 3 4 5 6 7 8 9 10 11 12 13 14 15 16 17 18 19 20 21 22 23 24 25

000
FTUS43 KBIS 290200 AAA
TAFISN
TAF AMD
KISN 290208Z 2902/2924 29018G25KT 6SM -SHRA BKN050
     FM290500 31030G43KT 5SM -SHRA BKN035
     FM291100 30021G32KT P6SM BKN100
     FM291300 30016G24KT P6SM BKN230
     FM291500 29014KT P6SM SCT200=

USA.gov is the U.S. government's official web portal to all federal, state and local government web resources and services.